createdAt,value
2023-05-06T00:00:12.767Z,1005.057
2023-05-06T00:00:42.765Z,1005.062
2023-05-06T00:01:12.766Z,1005.064
2023-05-06T00:01:42.760Z,1005.066
2023-05-06T00:02:12.764Z,1005.053
2023-05-06T00:02:42.878Z,1005.044
2023-05-06T00:03:12.883Z,1005.033
2023-05-06T00:03:42.910Z,1005.024
2023-05-06T00:04:12.857Z,1005.02
2023-05-06T00:04:42.802Z,1005.014
2023-05-06T00:05:12.945Z,1005.011
2023-05-06T00:05:42.762Z,1005.01
2023-05-06T00:06:12.766Z,1005.004
2023-05-06T00:06:42.765Z,1004.995
2023-05-06T00:07:12.778Z,1004.987
2023-05-06T00:07:42.763Z,1004.989
2023-05-06T00:08:12.763Z,1004.981
2023-05-06T00:08:42.778Z,1004.977
2023-05-06T00:09:12.783Z,1004.97
2023-05-06T00:09:42.766Z,1004.955
2023-05-06T00:10:12.766Z,1004.947
2023-05-06T00:10:42.771Z,1004.94
2023-05-06T00:11:12.762Z,1004.931
2023-05-06T00:11:42.771Z,1004.93
2023-05-06T00:12:12.775Z,1004.921
2023-05-06T00:12:42.774Z,1004.908
2023-05-06T00:13:12.825Z,1004.914
2023-05-06T00:13:42.764Z,1004.914
2023-05-06T00:14:12.767Z,1004.911
2023-05-06T00:14:42.765Z,1004.908
2023-05-06T00:15:12.804Z,1004.904
2023-05-06T00:15:42.773Z,1004.895
2023-05-06T00:16:12.824Z,1004.89
2023-05-06T00:16:42.834Z,1004.889
2023-05-06T00:17:12.770Z,1004.901
2023-05-06T00:17:42.814Z,1004.904
2023-05-06T00:18:12.772Z,1004.905
2023-05-06T00:18:42.763Z,1004.899
2023-05-06T00:19:12.772Z,1004.878
2023-05-06T00:19:42.763Z,1004.866
2023-05-06T00:20:12.767Z,1004.862
2023-05-06T00:20:42.770Z,1004.868
2023-05-06T00:21:12.765Z,1004.87
2023-05-06T00:21:42.772Z,1004.87
2023-05-06T00:22:12.773Z,1004.867
2023-05-06T00:22:42.767Z,1004.868
2023-05-06T00:23:12.768Z,1004.864
2023-05-06T00:23:42.771Z,1004.859
2023-05-06T00:24:12.774Z,1004.845
2023-05-06T00:24:42.773Z,1004.846
2023-05-06T00:25:12.768Z,1004.844
2023-05-06T00:25:42.768Z,1004.842
2023-05-06T00:26:12.774Z,1004.845
2023-05-06T00:26:42.769Z,1004.851
2023-05-06T00:27:12.774Z,1004.853
2023-05-06T00:27:42.764Z,1004.842
2023-05-06T00:28:12.769Z,1004.837
2023-05-06T00:28:42.769Z,1004.839
2023-05-06T00:29:12.779Z,1004.839
2023-05-06T00:29:42.774Z,1004.851
2023-05-06T00:30:12.775Z,1004.848
2023-05-06T00:30:42.771Z,1004.846
2023-05-06T00:31:12.768Z,1004.838
2023-05-06T00:31:42.836Z,1004.834
2023-05-06T00:32:12.904Z,1004.832
2023-05-06T00:32:42.812Z,1004.826
2023-05-06T00:33:12.772Z,1004.833
2023-05-06T00:33:42.770Z,1004.835
2023-05-06T00:34:12.769Z,1004.83
2023-05-06T00:34:42.771Z,1004.821
2023-05-06T00:35:12.773Z,1004.819
2023-05-06T00:35:42.769Z,1004.818
2023-05-06T00:36:12.804Z,1004.803
2023-05-06T00:36:42.805Z,1004.8
2023-05-06T00:37:12.780Z,1004.786
2023-05-06T00:37:42.775Z,1004.782
2023-05-06T00:38:12.791Z,1004.773
2023-05-06T00:38:42.782Z,1004.762
2023-05-06T00:39:12.785Z,1004.751
2023-05-06T00:39:42.776Z,1004.75
2023-05-06T00:40:12.773Z,1004.741
2023-05-06T00:40:42.776Z,1004.728
2023-05-06T00:41:12.789Z,1004.728
2023-05-06T00:41:42.775Z,1004.731
2023-05-06T00:42:12.779Z,1004.73
2023-05-06T00:42:42.774Z,1004.733
2023-05-06T00:43:12.781Z,1004.746
2023-05-06T00:43:42.783Z,1004.75
2023-05-06T00:44:12.776Z,1004.752
2023-05-06T00:44:42.783Z,1004.743
2023-05-06T00:45:12.780Z,1004.726
2023-05-06T00:45:42.796Z,1004.709
2023-05-06T00:46:12.789Z,1004.699
2023-05-06T00:46:42.774Z,1004.698
2023-05-06T00:47:12.771Z,1004.698
2023-05-06T00:47:42.887Z,1004.696
2023-05-06T00:48:12.871Z,1004.703
2023-05-06T00:48:42.776Z,1004.718
2023-05-06T00:49:12.774Z,1004.717
2023-05-06T00:49:42.776Z,1004.734
2023-05-06T00:50:12.777Z,1004.727
2023-05-06T00:50:42.792Z,1004.717
2023-05-06T00:51:12.776Z,1004.706
2023-05-06T00:51:42.780Z,1004.694
2023-05-06T00:52:12.777Z,1004.684
2023-05-06T00:52:42.782Z,1004.683
2023-05-06T00:53:12.779Z,1004.673
2023-05-06T00:53:42.775Z,1004.672
2023-05-06T00:54:12.774Z,1004.679
2023-05-06T00:54:42.778Z,1004.673
2023-05-06T00:55:12.782Z,1004.663
2023-05-06T00:55:42.774Z,1004.661
2023-05-06T00:56:12.774Z,1004.656
2023-05-06T00:56:42.776Z,1004.665
2023-05-06T00:57:12.778Z,1004.661
2023-05-06T00:57:42.785Z,1004.663
2023-05-06T00:58:12.786Z,1004.672
2023-05-06T00:58:42.798Z,1004.682
2023-05-06T00:59:12.779Z,1004.69
2023-05-06T00:59:42.781Z,1004.69
2023-05-06T01:00:12.782Z,1004.689
2023-05-06T01:00:42.794Z,1004.68
2023-05-06T01:01:12.836Z,1004.666
2023-05-06T01:01:42.843Z,1004.649
2023-05-06T01:02:12.806Z,1004.646
2023-05-06T01:02:47.428Z,1004.645
2023-05-06T01:03:14.208Z,1004.625
2023-05-06T01:03:42.899Z,1004.62
2023-05-06T01:04:12.839Z,1004.614
2023-05-06T01:04:42.800Z,1004.626
2023-05-06T01:05:12.849Z,1004.624
2023-05-06T01:05:42.785Z,1004.618
2023-05-06T01:06:12.784Z,1004.614
2023-05-06T01:06:42.786Z,1004.6
2023-05-06T01:07:12.787Z,1004.587
2023-05-06T01:07:42.783Z,1004.576
2023-05-06T01:08:12.783Z,1004.567
2023-05-06T01:08:42.792Z,1004.563
2023-05-06T01:09:12.782Z,1004.552
2023-05-06T01:09:42.800Z,1004.565
2023-05-06T01:10:12.783Z,1004.554
2023-05-06T01:10:42.788Z,1004.551
2023-05-06T01:11:14.014Z,1004.546
2023-05-06T01:11:43.835Z,1004.549
2023-05-06T01:12:12.783Z,1004.552
2023-05-06T01:12:42.848Z,1004.549
2023-05-06T01:13:12.834Z,1004.544
2023-05-06T01:13:42.821Z,1004.546
2023-05-06T01:14:12.791Z,1004.553
2023-05-06T01:14:42.791Z,1004.551
2023-05-06T01:15:12.793Z,1004.558
2023-05-06T01:15:42.787Z,1004.563
2023-05-06T01:16:12.790Z,1004.573
2023-05-06T01:16:42.823Z,1004.576
2023-05-06T01:17:12.866Z,1004.587
2023-05-06T01:17:42.816Z,1004.597
2023-05-06T01:18:12.793Z,1004.598
2023-05-06T01:18:42.826Z,1004.599
2023-05-06T01:19:12.788Z,1004.595
2023-05-06T01:19:42.785Z,1004.611
2023-05-06T01:20:12.821Z,1004.62
2023-05-06T01:20:42.789Z,1004.612
2023-05-06T01:21:12.809Z,1004.602
2023-05-06T01:21:42.790Z,1004.602
2023-05-06T01:22:12.791Z,1004.601
2023-05-06T01:22:42.793Z,1004.593
2023-05-06T01:23:12.788Z,1004.59
2023-05-06T01:23:42.792Z,1004.585
2023-05-06T01:24:12.801Z,1004.577
2023-05-06T01:24:42.791Z,1004.576
2023-05-06T01:25:12.792Z,1004.577
2023-05-06T01:25:42.798Z,1004.571
2023-05-06T01:26:12.792Z,1004.574
2023-05-06T01:26:42.800Z,1004.573
2023-05-06T01:27:12.794Z,1004.577
2023-05-06T01:27:42.797Z,1004.583
2023-05-06T01:28:12.796Z,1004.588
2023-05-06T01:28:42.796Z,1004.583
2023-05-06T01:29:12.799Z,1004.59
2023-05-06T01:29:42.800Z,1004.595
2023-05-06T01:30:12.799Z,1004.594
2023-05-06T01:30:42.819Z,1004.595
2023-05-06T01:31:12.821Z,1004.6
2023-05-06T01:31:42.792Z,1004.595
2023-05-06T01:32:12.794Z,1004.588
2023-05-06T01:32:42.818Z,1004.592
2023-05-06T01:33:12.819Z,1004.577
2023-05-06T01:33:42.792Z,1004.57
2023-05-06T01:34:12.803Z,1004.557
2023-05-06T01:34:42.792Z,1004.552
2023-05-06T01:35:12.792Z,1004.545
2023-05-06T01:35:42.796Z,1004.525
2023-05-06T01:36:12.793Z,1004.51
2023-05-06T01:36:42.801Z,1004.491
2023-05-06T01:37:12.813Z,1004.483
2023-05-06T01:37:42.799Z,1004.479
2023-05-06T01:38:12.810Z,1004.479
2023-05-06T01:38:42.798Z,1004.463
2023-05-06T01:39:12.796Z,1004.455
2023-05-06T01:39:42.800Z,1004.445
2023-05-06T01:40:12.827Z,1004.442
2023-05-06T01:40:42.807Z,1004.44
2023-05-06T01:41:12.794Z,1004.438
2023-05-06T01:41:42.805Z,1004.436
2023-05-06T01:42:12.801Z,1004.424
2023-05-06T01:42:42.796Z,1004.418
2023-05-06T01:43:12.795Z,1004.405
2023-05-06T01:43:42.804Z,1004.4
2023-05-06T01:44:12.808Z,1004.395
2023-05-06T01:44:42.807Z,1004.395
2023-05-06T01:45:12.802Z,1004.381
2023-05-06T01:45:42.794Z,1004.378
2023-05-06T01:46:12.819Z,1004.368
2023-05-06T01:46:42.829Z,1004.369
2023-05-06T01:47:12.799Z,1004.363
2023-05-06T01:47:42.829Z,1004.359
2023-05-06T01:48:12.796Z,1004.375
2023-05-06T01:48:42.811Z,1004.379
2023-05-06T01:49:12.797Z,1004.379
2023-05-06T01:49:42.798Z,1004.383
2023-05-06T01:50:12.801Z,1004.388
2023-05-06T01:50:42.797Z,1004.38
2023-05-06T01:51:12.799Z,1004.371
2023-05-06T01:51:42.796Z,1004.37
2023-05-06T01:52:12.802Z,1004.368
2023-05-06T01:52:42.800Z,1004.368
2023-05-06T01:53:12.799Z,1004.366
2023-05-06T01:53:42.796Z,1004.357
2023-05-06T01:54:12.832Z,1004.356
2023-05-06T01:54:42.798Z,1004.363
2023-05-06T01:55:12.807Z,1004.377
2023-05-06T01:55:42.800Z,1004.377
2023-05-06T01:56:12.804Z,1004.383
2023-05-06T01:56:42.799Z,1004.392
2023-05-06T01:57:12.800Z,1004.4
2023-05-06T01:57:42.802Z,1004.389
2023-05-06T01:58:12.803Z,1004.379
2023-05-06T01:58:42.816Z,1004.375
2023-05-06T01:59:12.814Z,1004.374
2023-05-06T01:59:42.823Z,1004.379
2023-05-06T02:00:12.822Z,1004.383
2023-05-06T02:00:42.827Z,1004.384
2023-05-06T02:01:12.832Z,1004.382
2023-05-06T02:01:42.887Z,1004.386
2023-05-06T02:02:12.828Z,1004.38
2023-05-06T02:02:43.008Z,1004.381
2023-05-06T02:03:12.877Z,1004.381
2023-05-06T02:03:42.920Z,1004.385
2023-05-06T02:04:12.809Z,1004.389
2023-05-06T02:04:42.842Z,1004.394
2023-05-06T02:05:12.800Z,1004.401
2023-05-06T02:05:42.810Z,1004.42
2023-05-06T02:06:12.801Z,1004.433
2023-05-06T02:06:42.820Z,1004.45
2023-05-06T02:07:12.808Z,1004.46
2023-05-06T02:07:42.805Z,1004.462
2023-05-06T02:08:12.833Z,1004.452
2023-05-06T02:08:42.797Z,1004.441
2023-05-06T02:09:12.805Z,1004.432
2023-05-06T02:09:42.805Z,1004.43
2023-05-06T02:10:12.803Z,1004.42
2023-05-06T02:10:42.797Z,1004.414
2023-05-06T02:11:12.801Z,1004.4
2023-05-06T02:11:42.794Z,1004.392
2023-05-06T02:12:12.806Z,1004.383
2023-05-06T02:12:42.834Z,1004.384
2023-05-06T02:13:12.829Z,1004.382
2023-05-06T02:13:42.800Z,1004.374
2023-05-06T02:14:12.804Z,1004.365
2023-05-06T02:14:42.804Z,1004.362
2023-05-06T02:15:12.801Z,1004.356
2023-05-06T02:15:42.822Z,1004.359
2023-05-06T02:16:12.858Z,1004.359
2023-05-06T02:16:42.822Z,1004.358
2023-05-06T02:17:12.799Z,1004.374
2023-05-06T02:17:42.820Z,1004.379
2023-05-06T02:18:12.796Z,1004.385
2023-05-06T02:18:42.810Z,1004.384
2023-05-06T02:19:12.816Z,1004.371
2023-05-06T02:19:42.807Z,1004.366
2023-05-06T02:20:12.801Z,1004.357
2023-05-06T02:20:42.805Z,1004.355
2023-05-06T02:21:12.797Z,1004.343
2023-05-06T02:21:42.802Z,1004.332
2023-05-06T02:22:12.799Z,1004.326
2023-05-06T02:22:42.799Z,1004.312
2023-05-06T02:23:12.799Z,1004.293
2023-05-06T02:23:42.803Z,1004.27
2023-05-06T02:24:12.802Z,1004.259
2023-05-06T02:24:42.805Z,1004.253
2023-05-06T02:25:12.802Z,1004.241
2023-05-06T02:25:42.801Z,1004.233
2023-05-06T02:26:12.799Z,1004.226
2023-05-06T02:26:42.801Z,1004.217
2023-05-06T02:27:12.804Z,1004.21
2023-05-06T02:27:42.800Z,1004.207
2023-05-06T02:28:12.811Z,1004.206
2023-05-06T02:28:42.812Z,1004.196
2023-05-06T02:29:12.810Z,1004.186
2023-05-06T02:29:42.824Z,1004.18
2023-05-06T02:30:12.807Z,1004.172
2023-05-06T02:30:42.807Z,1004.165
2023-05-06T02:31:12.831Z,1004.166
2023-05-06T02:31:42.843Z,1004.164
2023-05-06T02:32:12.804Z,1004.162
2023-05-06T02:32:42.988Z,1004.16
2023-05-06T02:33:12.805Z,1004.154
2023-05-06T02:33:42.805Z,1004.144
2023-05-06T02:34:12.804Z,1004.131
2023-05-06T02:34:42.859Z,1004.122
2023-05-06T02:35:12.805Z,1004.107
2023-05-06T02:35:42.823Z,1004.107
2023-05-06T02:36:12.802Z,1004.102
2023-05-06T02:36:42.823Z,1004.103
2023-05-06T02:37:12.805Z,1004.088
2023-05-06T02:37:42.804Z,1004.087
2023-05-06T02:38:12.807Z,1004.092
2023-05-06T02:38:42.815Z,1004.095
2023-05-06T02:39:12.811Z,1004.105
2023-05-06T02:39:42.823Z,1004.108
2023-05-06T02:40:12.812Z,1004.113
2023-05-06T02:40:42.835Z,1004.12
2023-05-06T02:41:12.806Z,1004.121
2023-05-06T02:41:42.801Z,1004.122
2023-05-06T02:42:12.836Z,1004.132
2023-05-06T02:42:42.872Z,1004.132
2023-05-06T02:43:12.824Z,1004.134
2023-05-06T02:43:42.848Z,1004.138
2023-05-06T02:44:12.809Z,1004.142
2023-05-06T02:44:42.867Z,1004.142
2023-05-06T02:45:12.816Z,1004.135
2023-05-06T02:45:42.918Z,1004.139
2023-05-06T02:46:12.898Z,1004.138
2023-05-06T02:46:42.817Z,1004.13
2023-05-06T02:47:12.820Z,1004.117
2023-05-06T02:47:42.910Z,1004.113
2023-05-06T02:48:12.812Z,1004.099
2023-05-06T02:48:42.856Z,1004.099
2023-05-06T02:49:12.810Z,1004.097
2023-05-06T02:49:42.834Z,1004.097
2023-05-06T02:50:12.810Z,1004.087
2023-05-06T02:50:42.805Z,1004.095
2023-05-06T02:51:12.816Z,1004.089
2023-05-06T02:51:42.901Z,1004.087
2023-05-06T02:52:12.806Z,1004.075
2023-05-06T02:52:42.928Z,1004.077
2023-05-06T02:53:12.807Z,1004.073
2023-05-06T02:53:42.886Z,1004.075
2023-05-06T02:54:12.813Z,1004.091
2023-05-06T02:54:42.957Z,1004.102
2023-05-06T02:55:12.817Z,1004.101
2023-05-06T02:55:42.870Z,1004.094
2023-05-06T02:56:12.818Z,1004.09
2023-05-06T02:56:42.820Z,1004.09
2023-05-06T02:57:12.807Z,1004.079
2023-05-06T02:57:42.916Z,1004.066
2023-05-06T02:58:12.816Z,1004.072
2023-05-06T02:58:42.900Z,1004.078
2023-05-06T02:59:12.812Z,1004.076
2023-05-06T02:59:42.816Z,1004.085
2023-05-06T03:00:12.858Z,1004.089
2023-05-06T03:00:42.813Z,1004.102
2023-05-06T03:01:12.845Z,1004.109
2023-05-06T03:01:42.896Z,1004.114
2023-05-06T03:02:12.813Z,1004.131
2023-05-06T03:02:42.818Z,1004.153
2023-05-06T03:03:12.837Z,1004.162
2023-05-06T03:03:42.811Z,1004.164
2023-05-06T03:04:12.858Z,1004.161
2023-05-06T03:04:42.810Z,1004.16
2023-05-06T03:05:12.811Z,1004.15
2023-05-06T03:05:42.821Z,1004.149
2023-05-06T03:06:12.816Z,1004.134
2023-05-06T03:06:42.817Z,1004.117
2023-05-06T03:07:12.831Z,1004.115
2023-05-06T03:07:42.814Z,1004.113
2023-05-06T03:08:12.809Z,1004.124
2023-05-06T03:08:42.810Z,1004.131
2023-05-06T03:09:12.834Z,1004.139
2023-05-06T03:09:42.835Z,1004.145
2023-05-06T03:10:12.844Z,1004.147
2023-05-06T03:10:42.808Z,1004.154
2023-05-06T03:11:12.812Z,1004.159
2023-05-06T03:11:42.827Z,1004.158
2023-05-06T03:12:12.814Z,1004.159
2023-05-06T03:12:42.852Z,1004.166
2023-05-06T03:13:12.866Z,1004.165
2023-05-06T03:13:42.816Z,1004.164
2023-05-06T03:14:12.820Z,1004.142
2023-05-06T03:14:42.817Z,1004.125
2023-05-06T03:15:13.082Z,1004.103
2023-05-06T03:15:42.814Z,1004.091
2023-05-06T03:16:12.823Z,1004.084
2023-05-06T03:16:42.847Z,1004.07
2023-05-06T03:17:12.810Z,1004.064
2023-05-06T03:17:42.862Z,1004.061
2023-05-06T03:18:12.816Z,1004.056
2023-05-06T03:18:42.823Z,1004.039
2023-05-06T03:19:12.834Z,1004.025
2023-05-06T03:19:42.820Z,1004.016
2023-05-06T03:20:12.812Z,1004.016
2023-05-06T03:20:42.817Z,1004.02
2023-05-06T03:21:12.984Z,1004.025
2023-05-06T03:21:42.837Z,1004.03
2023-05-06T03:22:12.821Z,1004.036
2023-05-06T03:22:42.816Z,1004.04
2023-05-06T03:23:12.815Z,1004.039
2023-05-06T03:23:42.811Z,1004.031
2023-05-06T03:24:12.815Z,1004.034
2023-05-06T03:24:42.814Z,1004.025
2023-05-06T03:25:12.909Z,1004.012
2023-05-06T03:25:42.831Z,1004.01
2023-05-06T03:26:12.836Z,1004.031
2023-05-06T03:26:42.817Z,1004.044
2023-05-06T03:27:12.818Z,1004.05
2023-05-06T03:27:42.813Z,1004.056
2023-05-06T03:28:12.822Z,1004.06
2023-05-06T03:28:42.816Z,1004.067
2023-05-06T03:29:12.820Z,1004.084
2023-05-06T03:29:42.823Z,1004.091
2023-05-06T03:30:12.815Z,1004.083
2023-05-06T03:30:42.816Z,1004.08
2023-05-06T03:31:12.896Z,1004.071
2023-05-06T03:31:42.834Z,1004.067
2023-05-06T03:32:12.825Z,1004.06
2023-05-06T03:32:42.860Z,1004.048
2023-05-06T03:33:12.823Z,1004.038
2023-05-06T03:33:42.817Z,1004.025
2023-05-06T03:34:12.823Z,1003.994
2023-05-06T03:34:42.819Z,1003.975
2023-05-06T03:35:12.817Z,1003.974
2023-05-06T03:35:42.828Z,1003.973
2023-05-06T03:36:12.817Z,1003.971
2023-05-06T03:36:42.818Z,1003.951
2023-05-06T03:37:12.829Z,1003.94
2023-05-06T03:37:42.820Z,1003.949
2023-05-06T03:38:12.821Z,1003.974
2023-05-06T03:38:42.827Z,1003.989
2023-05-06T03:39:12.819Z,1004.006
2023-05-06T03:39:42.822Z,1004.018
2023-05-06T03:40:12.828Z,1004.024
2023-05-06T03:40:42.824Z,1004.028
2023-05-06T03:41:12.829Z,1004.027
2023-05-06T03:41:42.821Z,1004.036
2023-05-06T03:42:12.819Z,1004.027
2023-05-06T03:42:42.824Z,1004.032
2023-05-06T03:43:12.816Z,1004.043
2023-05-06T03:43:42.824Z,1004.04
2023-05-06T03:44:12.834Z,1004.043
2023-05-06T03:44:42.823Z,1004.045
2023-05-06T03:45:13.017Z,1004.044
2023-05-06T03:45:42.827Z,1004.042
2023-05-06T03:46:12.844Z,1004.042
2023-05-06T03:46:42.851Z,1004.047
2023-05-06T03:47:12.834Z,1004.053
2023-05-06T03:47:42.851Z,1004.059
2023-05-06T03:48:12.851Z,1004.056
2023-05-06T03:48:42.827Z,1004.058
2023-05-06T03:49:12.829Z,1004.049
2023-05-06T03:49:42.817Z,1004.042
2023-05-06T03:50:12.821Z,1004.049
2023-05-06T03:50:42.845Z,1004.051
2023-05-06T03:51:12.827Z,1004.046
2023-05-06T03:51:42.826Z,1004.038
2023-05-06T03:52:12.827Z,1004.035
2023-05-06T03:52:42.848Z,1004.018
2023-05-06T03:53:12.863Z,1004.009
2023-05-06T03:53:42.837Z,1004.014
2023-05-06T03:54:12.845Z,1004.005
2023-05-06T03:54:42.833Z,1003.997
2023-05-06T03:55:12.858Z,1003.99
2023-05-06T03:55:42.831Z,1003.975
2023-05-06T03:56:12.821Z,1003.96
2023-05-06T03:56:42.836Z,1003.949
2023-05-06T03:57:12.823Z,1003.945
2023-05-06T03:57:42.822Z,1003.941
2023-05-06T03:58:12.821Z,1003.919
2023-05-06T03:58:42.824Z,1003.898
2023-05-06T03:59:12.829Z,1003.88
2023-05-06T03:59:42.827Z,1003.87
2023-05-06T04:00:12.871Z,1003.866
2023-05-06T04:00:42.833Z,1003.848
2023-05-06T04:01:12.838Z,1003.833
2023-05-06T04:01:42.873Z,1003.823
2023-05-06T04:02:12.927Z,1003.812
2023-05-06T04:02:42.934Z,1003.802
2023-05-06T04:03:12.896Z,1003.807
2023-05-06T04:03:42.876Z,1003.813
2023-05-06T04:04:12.887Z,1003.82
2023-05-06T04:04:42.825Z,1003.817
2023-05-06T04:05:12.946Z,1003.821
2023-05-06T04:05:42.842Z,1003.824
2023-05-06T04:06:12.825Z,1003.821
2023-05-06T04:06:42.826Z,1003.818
2023-05-06T04:07:12.824Z,1003.809
2023-05-06T04:07:42.825Z,1003.802
2023-05-06T04:08:12.832Z,1003.785
2023-05-06T04:08:42.851Z,1003.767
2023-05-06T04:09:12.825Z,1003.773
2023-05-06T04:09:42.831Z,1003.772
2023-05-06T04:10:12.827Z,1003.761
2023-05-06T04:10:42.833Z,1003.761
2023-05-06T04:11:12.827Z,1003.768
2023-05-06T04:11:42.842Z,1003.776
2023-05-06T04:12:12.836Z,1003.804
2023-05-06T04:12:42.862Z,1003.808
2023-05-06T04:13:12.917Z,1003.809
2023-05-06T04:13:42.833Z,1003.798
2023-05-06T04:14:12.838Z,1003.793
2023-05-06T04:14:42.831Z,1003.789
2023-05-06T04:15:13.056Z,1003.78
2023-05-06T04:15:42.824Z,1003.765
2023-05-06T04:16:12.872Z,1003.751
2023-05-06T04:16:42.858Z,1003.731
2023-05-06T04:17:12.825Z,1003.712
2023-05-06T04:17:42.873Z,1003.701
2023-05-06T04:18:12.831Z,1003.68
2023-05-06T04:18:42.829Z,1003.662
2023-05-06T04:19:12.834Z,1003.649
2023-05-06T04:19:42.829Z,1003.635
2023-05-06T04:20:12.837Z,1003.618
2023-05-06T04:20:42.829Z,1003.605
2023-05-06T04:21:12.833Z,1003.594
2023-05-06T04:21:42.859Z,1003.593
2023-05-06T04:22:12.827Z,1003.6
2023-05-06T04:22:42.833Z,1003.606
2023-05-06T04:23:12.830Z,1003.623
2023-05-06T04:23:42.834Z,1003.629
2023-05-06T04:24:12.830Z,1003.644
2023-05-06T04:24:42.838Z,1003.667
2023-05-06T04:25:13.006Z,1003.693
2023-05-06T04:25:42.832Z,1003.696
2023-05-06T04:26:12.828Z,1003.695
2023-05-06T04:26:42.828Z,1003.707
2023-05-06T04:27:12.837Z,1003.695
2023-05-06T04:27:42.830Z,1003.69
2023-05-06T04:28:12.832Z,1003.664
2023-05-06T04:28:42.830Z,1003.641
2023-05-06T04:29:12.837Z,1003.614
2023-05-06T04:29:42.839Z,1003.603
2023-05-06T04:30:12.841Z,1003.584
2023-05-06T04:30:42.833Z,1003.561
2023-05-06T04:31:12.865Z,1003.54
2023-05-06T04:31:42.863Z,1003.536
2023-05-06T04:32:12.840Z,1003.537
2023-05-06T04:32:42.887Z,1003.531
2023-05-06T04:33:12.959Z,1003.526
2023-05-06T04:33:42.836Z,1003.527
2023-05-06T04:34:12.842Z,1003.524
2023-05-06T04:34:42.843Z,1003.517
2023-05-06T04:35:12.836Z,1003.516
2023-05-06T04:35:42.840Z,1003.515
2023-05-06T04:36:12.864Z,1003.511
2023-05-06T04:36:42.836Z,1003.509
2023-05-06T04:37:12.837Z,1003.518
2023-05-06T04:37:42.839Z,1003.535
2023-05-06T04:38:12.841Z,1003.549
2023-05-06T04:38:42.846Z,1003.554
2023-05-06T04:39:12.851Z,1003.547
2023-05-06T04:39:42.847Z,1003.553
2023-05-06T04:40:12.845Z,1003.546
2023-05-06T04:40:42.839Z,1003.55
2023-05-06T04:41:12.841Z,1003.546
2023-05-06T04:41:42.838Z,1003.543
2023-05-06T04:42:12.847Z,1003.543
2023-05-06T04:42:42.883Z,1003.54
2023-05-06T04:43:12.850Z,1003.533
2023-05-06T04:43:42.845Z,1003.534
2023-05-06T04:44:12.849Z,1003.542
2023-05-06T04:44:42.847Z,1003.546
2023-05-06T04:45:12.862Z,1003.555
2023-05-06T04:45:42.875Z,1003.56
2023-05-06T04:46:12.899Z,1003.575
2023-05-06T04:46:42.844Z,1003.598
2023-05-06T04:47:12.844Z,1003.593
2023-05-06T04:47:42.853Z,1003.594
2023-05-06T04:48:12.840Z,1003.585
2023-05-06T04:48:42.845Z,1003.576
2023-05-06T04:49:12.852Z,1003.572
2023-05-06T04:49:42.847Z,1003.567
2023-05-06T04:50:12.845Z,1003.556
2023-05-06T04:50:42.851Z,1003.544
2023-05-06T04:51:12.845Z,1003.532
2023-05-06T04:51:42.844Z,1003.531
2023-05-06T04:52:12.847Z,1003.535
2023-05-06T04:52:42.866Z,1003.554
2023-05-06T04:53:12.849Z,1003.598
2023-05-06T04:53:42.845Z,1003.625
2023-05-06T04:54:12.845Z,1003.639
2023-05-06T04:54:45.398Z,1003.644
2023-05-06T04:55:13.004Z,1003.649
2023-05-06T04:55:42.847Z,1003.649
2023-05-06T04:56:12.854Z,1003.651
2023-05-06T04:56:42.851Z,1003.654
2023-05-06T04:57:12.847Z,1003.648
2023-05-06T04:57:42.847Z,1003.644
2023-05-06T04:58:12.848Z,1003.638
2023-05-06T04:58:42.851Z,1003.635
2023-05-06T04:59:12.848Z,1003.639
2023-05-06T04:59:42.856Z,1003.637
2023-05-06T05:00:12.852Z,1003.626
2023-05-06T05:00:42.851Z,1003.614
2023-05-06T05:01:12.868Z,1003.607
2023-05-06T05:01:42.938Z,1003.605
2023-05-06T05:02:12.931Z,1003.583
2023-05-06T05:02:42.914Z,1003.57
2023-05-06T05:03:13.000Z,1003.547
2023-05-06T05:03:42.917Z,1003.529
2023-05-06T05:04:12.861Z,1003.523
2023-05-06T05:04:42.879Z,1003.511
2023-05-06T05:05:12.914Z,1003.511
2023-05-06T05:05:42.850Z,1003.5
2023-05-06T05:06:12.852Z,1003.492
2023-05-06T05:06:42.858Z,1003.504
2023-05-06T05:07:12.852Z,1003.516
2023-05-06T05:07:42.857Z,1003.515
2023-05-06T05:08:12.848Z,1003.524
2023-05-06T05:08:42.855Z,1003.522
2023-05-06T05:09:12.851Z,1003.511
2023-05-06T05:09:42.854Z,1003.52
2023-05-06T05:10:12.856Z,1003.523
2023-05-06T05:10:42.852Z,1003.531
2023-05-06T05:11:12.869Z,1003.529
2023-05-06T05:11:42.866Z,1003.535
2023-05-06T05:12:12.862Z,1003.55
2023-05-06T05:12:42.886Z,1003.554
2023-05-06T05:13:12.918Z,1003.554
2023-05-06T05:13:42.854Z,1003.562
2023-05-06T05:14:12.856Z,1003.559
2023-05-06T05:14:42.858Z,1003.545
2023-05-06T05:15:13.063Z,1003.552
2023-05-06T05:15:42.853Z,1003.535
2023-05-06T05:16:12.881Z,1003.539
2023-05-06T05:16:42.899Z,1003.559
2023-05-06T05:17:12.925Z,1003.571
2023-05-06T05:17:42.940Z,1003.586
2023-05-06T05:18:12.893Z,1003.587
2023-05-06T05:18:42.859Z,1003.585
2023-05-06T05:19:12.859Z,1003.576
2023-05-06T05:19:42.860Z,1003.563
2023-05-06T05:20:12.856Z,1003.547
2023-05-06T05:20:42.868Z,1003.545
2023-05-06T05:21:12.857Z,1003.525
2023-05-06T05:21:42.858Z,1003.508
2023-05-06T05:22:12.873Z,1003.505
2023-05-06T05:22:42.856Z,1003.484
2023-05-06T05:23:12.856Z,1003.481
2023-05-06T05:23:42.862Z,1003.471
2023-05-06T05:24:12.869Z,1003.463
2023-05-06T05:24:42.860Z,1003.462
2023-05-06T05:25:13.207Z,1003.48
2023-05-06T05:25:42.866Z,1003.484
2023-05-06T05:26:12.879Z,1003.478
2023-05-06T05:26:42.866Z,1003.47
2023-05-06T05:27:12.867Z,1003.471
2023-05-06T05:27:42.862Z,1003.472
2023-05-06T05:28:12.867Z,1003.471
2023-05-06T05:28:42.861Z,1003.463
2023-05-06T05:29:12.868Z,1003.453
2023-05-06T05:29:42.864Z,1003.429
2023-05-06T05:30:12.863Z,1003.413
2023-05-06T05:30:42.873Z,1003.405
2023-05-06T05:31:12.906Z,1003.393
2023-05-06T05:31:42.939Z,1003.406
2023-05-06T05:32:12.865Z,1003.398
2023-05-06T05:32:42.917Z,1003.42
2023-05-06T05:33:12.984Z,1003.433
2023-05-06T05:33:42.893Z,1003.425
2023-05-06T05:34:12.864Z,1003.421
2023-05-06T05:34:42.864Z,1003.409
2023-05-06T05:35:12.862Z,1003.406
2023-05-06T05:35:42.864Z,1003.415
2023-05-06T05:36:12.859Z,1003.426
2023-05-06T05:36:42.869Z,1003.434
2023-05-06T05:37:12.876Z,1003.413
2023-05-06T05:37:42.862Z,1003.422
2023-05-06T05:38:12.868Z,1003.406
2023-05-06T05:38:42.866Z,1003.395
2023-05-06T05:39:12.865Z,1003.382
2023-05-06T05:39:42.865Z,1003.373
2023-05-06T05:40:12.862Z,1003.377
2023-05-06T05:40:42.863Z,1003.387
2023-05-06T05:41:13.352Z,1003.389
2023-05-06T05:41:42.871Z,1003.391
2023-05-06T05:42:12.873Z,1003.395
2023-05-06T05:42:42.861Z,1003.396
2023-05-06T05:43:12.866Z,1003.406
2023-05-06T05:43:42.871Z,1003.416
2023-05-06T05:44:12.874Z,1003.399
2023-05-06T05:44:42.866Z,1003.397
2023-05-06T05:45:12.871Z,1003.394
2023-05-06T05:45:42.872Z,1003.38
2023-05-06T05:46:12.930Z,1003.372
2023-05-06T05:46:42.886Z,1003.373
2023-05-06T05:47:12.871Z,1003.365
2023-05-06T05:47:42.905Z,1003.358
2023-05-06T05:48:12.865Z,1003.352
2023-05-06T05:48:42.866Z,1003.33
2023-05-06T05:49:12.869Z,1003.321
2023-05-06T05:49:42.878Z,1003.335
2023-05-06T05:50:12.864Z,1003.346
2023-05-06T05:50:42.876Z,1003.352
2023-05-06T05:51:12.866Z,1003.338
2023-05-06T05:51:42.877Z,1003.327
2023-05-06T05:52:12.885Z,1003.317
2023-05-06T05:52:42.873Z,1003.312
2023-05-06T05:53:12.866Z,1003.318